Airfield :
LOGIN :

Register | Disclaimer

   EN    FR    IT 

 










Legend :    VFR   Marginal VFR   IFR   Intensive IFR   Very Intensive IFR
Visi :
Ceiling :
>= 8 km
>= 3000ft
5 to 8 km
1000 to 3000 ft
1500m to 5 km
500 to 1000 ft
800 to 1500m
200 to 500 ft
< 800m
< 200 ft
Symbols :   Thunderstorms  Fog  Heavy snow  Heavy precipitations  Wind > 20 kt
SIGMETs :     Misc.  Thunderstorms  Icing  Turbulence  Mountain Waves  Volcanic Ashes






- Airport Elevation : 1276 ft
- IATA code : STR


EDDS - Stuttgart

CURRENT METAR :
  • 072050Z 31001KT CAVOK 11/02 Q1027

EXPIRED METARs :
  • 072020Z VRB01KT CAVOK 14/02 Q1027
  • 071950Z 04004KT CAVOK 14/03 Q1027 NOSIG
  • 071920Z 06003KT CAVOK 14/03 Q1027 NOSIG
  • 071850Z 09004KT CAVOK 15/02 Q1027 NOSIG
  • 071820Z 09003KT 060V130 CAVOK 17/02 Q1026 NOSIG

TAF TAF EDDS
Valid from the 07 at 18:00 until the 08 at 18:00 UTC


071700Z 0718/0818 07008KT CAVOK
BECMG 0719/0721 VRB03KT
BECMG 0812/0814 35005KT



MET'MAP, your aeronautical weather chart ! - Copyright ORBIFLY December 2007 - Disclaimer

ORBIFLY MET'MAP TEAM :

Programming & Development : Alexandra Zaïnal
Concept & original design : Baudouin d'Aumeries
Assistance for programming : Marc-Olivier Méhu
Technical & hardware support : Manuel Goepfert

Contact : metmap@orbifly.com




SOURCES & CREDITS :

   NOAA